Time;durP1;ratioP1;P1;durP2;ratioP2;P2;SDS_P1;SDS_P2;PMS_P1;PMS_P2;Temp;Humidity;BMP_temperature;BMP_pressure;BME280_temperature;BME280_humidity;BME280_pressure;Samples;Min_cycle;Max_cycle;Signal;HPM_P1;HPM_P2
2022/10/02 00:02:23;;;;;;;6.63;2.17;;;;;;;18.80;57.28;99025.06;7002211;28;20828;-80
2022/10/02 00:05:49;;;;;;;6.00;2.33;;;;;;;18.53;58.05;99035.03;7006305;28;20304;-80
2022/10/02 00:09:16;;;;;;;7.73;2.10;;;;;;;18.07;58.96;99035.34;7007703;28;20319;-80
2022/10/02 00:12:37;;;;;;;6.47;2.50;;;;;;;18.23;58.66;99023.59;7008246;28;20299;-80
2022/10/02 00:16:00;;;;;;;6.17;2.47;;;;;;;18.72;56.75;99015.38;7007961;28;20681;-80
2022/10/02 00:19:22;;;;;;;5.30;2.03;;;;;;;18.58;57.03;99018.72;7007491;28;20302;-80
2022/10/02 00:22:51;;;;;;;6.00;2.20;;;;;;;18.68;57.11;99007.91;7008935;28;20212;-80
2022/10/02 00:26:16;;;;;;;5.60;2.17;;;;;;;18.68;57.51;99024.31;7007973;28;20282;-80
2022/10/02 00:29:43;;;;;;;5.90;2.13;;;;;;;18.55;57.94;99033.69;7008031;28;20374;-80
2022/10/02 00:33:12;;;;;;;7.40;2.23;;;;;;;18.58;58.31;99048.75;7009614;28;20346;-80
2022/10/02 00:36:41;;;;;;;7.37;2.30;;;;;;;18.15;60.35;99056.75;7016411;28;20230;-80
2022/10/02 00:40:14;;;;;;;6.13;2.50;;;;;;;18.17;60.93;99052.69;7013539;28;20255;-80
2022/10/02 00:43:37;;;;;;;8.57;2.50;;;;;;;18.63;59.90;99046.09;7005507;28;20300;-80
2022/10/02 00:47:03;;;;;;;7.50;2.30;;;;;;;18.63;59.56;99054.31;7004559;28;20216;-81
2022/10/02 00:50:30;;;;;;;5.93;2.50;;;;;;;18.04;61.48;99028.47;7004159;28;20294;-80
2022/10/02 00:54:00;;;;;;;6.17;2.60;;;;;;;18.59;59.99;99034.84;7004908;28;20303;-80
2022/10/02 00:57:32;;;;;;;5.17;2.63;;;;;;;18.82;59.42;99040.09;7004902;28;20284;-81
2022/10/02 01:01:00;;;;;;;5.27;2.20;;;;;;;18.92;59.02;99023.84;7005175;28;20285;-80
2022/10/02 01:04:29;;;;;;;4.67;2.00;;;;;;;18.65;59.85;99030.28;7004577;28;20311;-80
2022/10/02 01:07:52;;;;;;;5.80;2.50;;;;;;;18.00;61.71;99002.78;7004262;28;20311;-80
2022/10/02 01:11:13;;;;;;;5.10;2.20;;;;;;;18.17;62.17;99040.97;7004537;28;20697;-80
2022/10/02 01:14:38;;;;;;;8.80;2.43;;;;;;;18.66;60.07;99049.16;7004510;28;20247;-81
2022/10/02 01:18:01;;;;;;;6.23;2.60;;;;;;;17.87;61.76;99041.25;7003151;28;20717;-80
2022/10/02 01:21:25;;;;;;;4.10;1.87;;;;;;;17.96;62.28;99037.06;7004404;28;20205;-80
2022/10/02 01:24:49;;;;;;;6.53;2.03;;;;;;;18.23;60.82;99048.97;7004175;28;20385;-81
2022/10/02 01:28:11;;;;;;;7.30;2.13;;;;;;;18.62;60.10;99034.34;7003571;28;20319;-80
2022/10/02 01:31:35;;;;;;;5.90;2.53;;;;;;;18.56;60.30;99027.16;7004267;28;20219;-80
2022/10/02 01:34:56;;;;;;;8.23;2.20;;;;;;;18.60;59.90;99022.00;7003945;28;20296;-79
2022/10/02 01:38:19;;;;;;;5.83;1.93;;;;;;;18.03;61.60;99032.28;7003430;28;20289;-79
2022/10/02 01:41:43;;;;;;;4.47;2.17;;;;;;;18.13;61.53;99047.97;7003568;28;20269;-80
2022/10/02 01:45:07;;;;;;;6.20;2.27;;;;;;;18.42;60.50;99047.69;7003211;28;20286;-80
2022/10/02 01:48:39;;;;;;;6.57;2.40;;;;;;;18.27;61.43;99052.06;7001407;28;20308;-80
2022/10/02 01:52:12;;;;;;;8.00;2.23;;;;;;;18.17;60.87;99040.97;7003112;28;20189;-80
2022/10/02 01:55:39;;;;;;;5.47;2.33;;;;;;;18.27;60.83;99058.34;7003204;28;20199;-80
2022/10/02 01:59:06;;;;;;;7.23;2.13;;;;;;;18.08;61.74;99062.38;7002457;28;20225;-80
2022/10/02 02:02:34;;;;;;;5.43;2.17;;;;;;;18.51;60.37;99068.03;7003299;28;20294;-81
2022/10/02 02:06:00;;;;;;;9.10;2.33;;;;;;;18.96;59.38;99049.59;7003079;28;20229;-80
2022/10/02 02:09:26;;;;;;;6.37;2.30;;;;;;;19.11;58.95;99054.44;7002392;28;20756;-80
2022/10/02 02:12:51;;;;;;;6.07;2.33;;;;;;;19.20;58.54;99052.88;7003512;28;20283;-80
2022/10/02 02:16:21;;;;;;;5.13;2.40;;;;;;;18.83;59.91;99043.66;7003110;28;20205;-80
2022/10/02 02:19:46;;;;;;;8.47;3.17;;;;;;;18.86;59.17;99074.03;7002493;28;20716;-80
2022/10/02 02:23:10;;;;;;;5.60;2.27;;;;;;;18.65;60.23;99063.06;7002895;28;20688;-81
2022/10/02 02:26:33;;;;;;;6.07;2.33;;;;;;;18.95;58.79;99039.75;7002676;28;20253;-80
2022/10/02 02:29:58;;;;;;;4.30;2.13;;;;;;;18.56;59.57;99061.81;7001459;28;20270;-80
2022/10/02 02:33:24;;;;;;;13.07;2.70;;;;;;;18.55;59.59;99043.78;7003142;28;20197;-80
2022/10/02 02:36:50;;;;;;;7.33;2.47;;;;;;;18.64;59.20;99045.03;7003106;28;20683;-80
2022/10/02 02:40:14;;;;;;;12.17;2.53;;;;;;;18.63;59.29;99073.41;7002252;28;20225;-81
2022/10/02 02:43:40;;;;;;;4.17;2.40;;;;;;;18.69;59.13;99064.22;7002762;28;20202;-81
2022/10/02 02:47:05;;;;;;;4.57;2.03;;;;;;;18.71;59.36;99068.34;7002570;28;20543;-81
2022/10/02 02:50:32;;;;;;;4.50;2.00;;;;;;;18.65;59.59;99057.59;7002635;28;20223;-81
2022/10/02 02:53:57;;;;;;;4.83;2.20;;;;;;;18.75;59.17;99065.94;7002816;28;20190;-81
2022/10/02 02:57:23;;;;;;;4.17;1.83;;;;;;;18.95;58.09;99039.75;7002846;28;20710;-81
2022/10/02 03:00:44;;;;;;;8.03;2.20;;;;;;;18.89;58.57;99050.84;7002828;28;20210;-81
2022/10/02 03:04:06;;;;;;;3.60;1.93;;;;;;;18.80;58.70;99066.03;7002454;28;20226;-81
2022/10/02 03:07:29;;;;;;;6.97;2.63;;;;;;;18.80;59.12;99071.50;7002670;28;20331;-80
2022/10/02 03:10:59;;;;;;;7.47;2.40;;;;;;;19.03;58.03;99076.72;7001814;28;20286;-80
2022/10/02 03:14:36;;;;;;;4.87;2.40;;;;;;;19.10;57.90;99071.91;7001465;28;20185;-81
2022/10/02 03:18:14;;;;;;;7.43;2.40;;;;;;;18.83;58.71;99062.78;7001743;28;20226;-81
2022/10/02 03:21:39;;;;;;;5.83;2.53;;;;;;;18.69;59.49;99070.50;7001671;28;20323;-81
2022/10/02 03:25:10;;;;;;;7.30;2.33;;;;;;;18.97;58.66;99075.81;7001482;28;20308;-80
2022/10/02 03:28:34;;;;;;;11.00;2.90;;;;;;;18.79;59.27;99069.81;7002475;28;20278;-81
2022/10/02 03:31:58;;;;;;;4.33;2.40;;;;;;;18.95;59.54;99079.88;7002633;28;20201;-80
2022/10/02 03:35:21;;;;;;;7.27;2.47;;;;;;;19.25;58.40;99070.22;7003399;28;20201;-80
2022/10/02 03:38:42;;;;;;;5.97;2.40;;;;;;;18.60;60.94;99072.00;7003906;28;20385;-80
2022/10/02 03:42:05;;;;;;;8.33;2.40;;;;;;;18.70;61.16;99057.69;7010965;28;20292;-80
2022/10/02 03:45:28;;;;;;;7.73;3.00;;;;;;;19.14;59.35;99060.22;7011549;28;20224;-80
2022/10/02 03:48:49;;;;;;;8.53;2.70;;;;;;;19.11;59.65;99068.09;7013380;28;20882;-80
2022/10/02 03:52:14;;;;;;;5.20;2.17;;;;;;;19.20;59.33;99067.41;7021984;28;20295;-80
2022/10/02 03:55:38;;;;;;;6.03;2.23;;;;;;;19.13;59.72;99055.84;7014558;28;20347;-80
2022/10/02 03:59:03;;;;;;;4.83;2.60;;;;;;;19.34;58.67;99060.50;7006878;28;20232;-80
2022/10/02 04:02:30;;;;;;;11.57;3.00;;;;;;;19.14;58.78;99041.06;7006559;28;20244;-80
2022/10/02 04:05:55;;;;;;;9.67;2.60;;;;;;;18.69;60.07;99056.03;7006133;28;20270;-80
2022/10/02 04:09:22;;;;;;;4.40;2.27;;;;;;;18.90;59.79;99072.47;6986266;28;20266;-80
2022/10/02 04:12:45;;;;;;;6.93;2.47;;;;;;;18.83;60.10;99052.69;7007620;28;20362;-80
2022/10/02 04:16:13;;;;;;;3.67;2.20;;;;;;;18.63;60.13;99051.56;7007173;28;20747;-80
2022/10/02 04:19:38;;;;;;;7.27;2.70;;;;;;;18.64;60.65;99075.88;7006842;28;20320;-80
2022/10/02 04:23:03;;;;;;;7.33;2.80;;;;;;;18.66;59.80;99087.41;7007302;28;20202;-80
2022/10/02 04:26:28;;;;;;;5.43;2.33;;;;;;;18.77;59.10;99077.44;7007517;28;20315;-80
2022/10/02 04:29:53;;;;;;;5.40;2.13;;;;;;;18.43;60.09;99082.13;7006634;28;20373;-80
2022/10/02 04:33:18;;;;;;;4.27;2.10;;;;;;;18.62;60.20;99097.16;7008110;28;20603;-80
2022/10/02 04:36:50;;;;;;;6.17;2.33;;;;;;;18.77;59.53;99089.22;7008107;28;20274;-80
2022/10/02 04:40:24;;;;;;;5.83;2.40;;;;;;;18.17;59.22;99013.69;7007227;28;20768;-80
2022/10/02 04:43:55;;;;;;;5.37;2.67;;;;;;;18.45;60.19;99093.59;7007901;28;20206;-80
2022/10/02 04:47:33;;;;;;;7.47;2.60;;;;;;;18.15;61.13;99101.25;7006696;28;20746;-80
2022/10/02 04:51:02;;;;;;;6.17;2.10;;;;;;;17.86;61.64;99099.63;6978135;28;20277;-80
2022/10/02 04:54:45;;;;;;;7.23;2.50;;;;;;;18.62;59.65;99093.59;6998295;28;20287;-80
2022/10/02 04:58:22;;;;;;;3.90;2.00;;;;;;;18.40;59.88;99082.59;7006616;28;20252;-80
2022/10/02 05:02:02;;;;;;;9.60;3.80;;;;;;;18.49;59.90;99107.59;7007070;28;20272;-80
2022/10/02 05:05:31;;;;;;;7.63;2.50;;;;;;;18.68;59.04;99103.50;7009021;28;20319;-80
2022/10/02 05:09:01;;;;;;;6.53;2.30;;;;;;;18.44;59.60;99094.69;7009328;28;20252;-80
2022/10/02 05:12:33;;;;;;;8.73;2.30;;;;;;;18.49;59.50;99093.94;7005154;28;20609;-80
2022/10/02 05:16:07;;;;;;;7.77;2.43;;;;;;;18.20;59.77;99071.31;7005061;28;20273;-80
2022/10/02 05:19:40;;;;;;;5.73;2.70;;;;;;;18.68;58.93;99089.84;7004690;28;20632;-80
2022/10/02 05:23:12;;;;;;;4.67;2.47;;;;;;;19.03;57.85;99076.72;7004227;28;20226;-80
2022/10/02 05:27:11;;;;;;;7.90;2.60;;;;;;;18.74;59.02;99073.31;7005784;28;20216;-80
2022/10/02 05:30:35;;;;;;;4.10;2.17;;;;;;;18.87;58.78;99072.94;6906478;28;20217;-80
2022/10/02 05:34:06;;;;;;;5.83;2.10;;;;;;;19.02;58.47;99067.69;6982098;28;20582;-80
2022/10/02 05:37:37;;;;;;;6.63;2.50;;;;;;;18.96;58.93;99071.44;6979194;28;20193;-80
2022/10/02 05:41:03;;;;;;;10.40;2.60;;;;;;;19.14;58.01;99075.78;6978611;28;20295;-80
2022/10/02 05:44:27;;;;;;;5.03;2.73;;;;;;;19.19;58.03;99076.69;6978799;28;20251;-80
2022/10/02 05:47:49;;;;;;;8.90;2.70;;;;;;;19.11;58.36;99074.38;7004113;28;20436;-82
2022/10/02 05:51:18;;;;;;;8.93;2.90;;;;;;;18.80;59.88;99093.34;6999809;28;20675;-83
2022/10/02 05:54:44;;;;;;;6.73;2.67;;;;;;;18.57;60.58;99091.59;6995182;28;20232;-81
2022/10/02 05:58:11;;;;;;;6.67;2.50;;;;;;;18.55;62.47;99082.00;7003649;28;20653;-82
2022/10/02 06:01:37;;;;;;;8.37;3.10;;;;;;;17.97;64.50;99090.56;7004720;28;20200;-81
2022/10/02 06:05:02;;;;;;;8.83;2.90;;;;;;;18.53;62.71;99084.16;6997192;28;20367;-83
2022/10/02 06:08:30;;;;;;;8.67;2.83;;;;;;;18.80;61.12;99079.69;6998142;28;20315;-79
2022/10/02 06:11:56;;;;;;;6.00;2.80;;;;;;;18.68;61.45;99087.97;7001565;28;20902;-81
2022/10/02 06:15:22;;;;;;;4.97;2.87;;;;;;;18.70;61.93;99098.66;7002568;28;20199;-80
2022/10/02 06:18:49;;;;;;;5.53;3.40;;;;;;;18.28;62.88;99095.47;7001060;28;20220;-80
2022/10/02 06:22:14;;;;;;;6.77;3.20;;;;;;;18.55;62.31;99093.78;7006993;28;20182;-81
2022/10/02 06:25:38;;;;;;;5.33;3.77;;;;;;;18.79;62.01;99119.00;7007985;28;20274;-81
2022/10/02 06:29:02;;;;;;;7.87;3.77;;;;;;;18.87;61.63;99105.72;7005955;28;20321;-80
2022/10/02 06:32:30;;;;;;;6.57;3.50;;;;;;;18.95;61.31;99088.94;7004074;28;20208;-83
2022/10/02 06:36:03;;;;;;;7.93;3.03;;;;;;;18.44;62.31;99067.38;7004755;28;20339;-81
2022/10/02 06:39:36;;;;;;;6.07;4.07;;;;;;;18.82;62.27;99085.72;7003075;28;20258;-79
2022/10/02 06:43:03;;;;;;;6.67;3.67;;;;;;;18.68;62.70;99087.97;7002936;28;20194;-77
2022/10/02 06:46:31;;;;;;;6.63;3.40;;;;;;;18.73;62.12;99062.63;6977555;28;20216;-80
2022/10/02 06:50:04;;;;;;;8.67;3.70;;;;;;;18.76;62.25;99060.22;6984844;28;20229;-80
2022/10/02 06:53:45;;;;;;;7.13;3.47;;;;;;;18.59;62.88;99042.22;7007093;28;20342;-80
2022/10/02 06:57:14;;;;;;;6.57;3.20;;;;;;;18.12;64.63;99077.19;7007822;28;20222;-80
2022/10/02 07:00:41;;;;;;;7.93;3.67;;;;;;;18.12;65.55;99066.28;7007540;28;20681;-80
2022/10/02 07:04:15;;;;;;;6.10;3.50;;;;;;;18.62;64.02;99079.94;7009350;28;20225;-80
2022/10/02 07:07:46;;;;;;;8.93;3.93;;;;;;;18.68;63.24;99066.13;7011125;28;20238;-80
2022/10/02 07:11:15;;;;;;;5.70;3.90;;;;;;;18.53;63.60;99057.72;7006786;28;20196;-80
2022/10/02 07:14:49;;;;;;;8.47;4.80;;;;;;;18.79;62.70;99053.41;6997900;28;20215;-80
2022/10/02 07:18:18;;;;;;;9.50;5.80;;;;;;;18.69;63.02;99042.38;7002847;28;20228;-79
2022/10/02 07:21:44;;;;;;;10.17;5.10;;;;;;;18.70;63.48;99052.22;6992049;28;20208;-80
2022/10/02 07:25:23;;;;;;;6.53;4.77;;;;;;;18.54;63.86;99047.59;6978144;28;20219;-80
2022/10/02 07:28:51;;;;;;;8.87;5.10;;;;;;;18.32;64.70;99033.88;7004055;28;20315;-80
2022/10/02 07:32:41;;;;;;;10.77;5.43;;;;;;;18.18;65.37;99029.81;7005047;28;20288;-80
2022/10/02 07:36:09;;;;;;;9.20;5.10;;;;;;;17.49;67.32;98983.00;7005576;28;20194;-80
2022/10/02 07:39:42;;;;;;;8.53;5.93;;;;;;;18.08;66.14;99009.69;6984652;28;20294;-80
2022/10/02 07:43:19;;;;;;;8.23;4.30;;;;;;;18.36;65.74;99006.91;6976910;28;20280;-80
2022/10/02 07:46:46;;;;;;;7.80;4.30;;;;;;;18.44;64.65;99003.75;6976375;28;20350;-80
2022/10/02 07:50:12;;;;;;;7.10;3.83;;;;;;;18.01;65.34;98992.66;6976609;28;20232;-80
2022/10/02 07:53:38;;;;;;;7.90;4.10;;;;;;;18.81;62.98;99013.03;6976624;28;20711;-80
2022/10/02 07:57:02;;;;;;;6.43;3.00;;;;;;;18.55;63.27;98997.34;6976721;28;20665;-80
2022/10/02 08:00:25;;;;;;;11.40;4.77;;;;;;;18.65;63.83;99012.00;6976181;28;20224;-80
2022/10/02 08:03:52;;;;;;;11.13;5.90;;;;;;;18.61;64.36;99013.56;6976771;28;20224;-80
2022/10/02 08:07:13;;;;;;;10.10;5.10;;;;;;;18.49;64.73;98980.09;6976121;28;20297;-80
2022/10/02 08:10:37;;;;;;;12.90;3.57;;;;;;;18.58;64.58;99000.41;6975311;28;20578;-80
2022/10/02 08:14:02;;;;;;;6.90;3.40;;;;;;;18.28;64.93;99023.69;6975530;28;20212;-80
2022/10/02 08:17:29;;;;;;;9.43;3.40;;;;;;;18.44;64.39;99022.84;6976157;28;20217;-81
2022/10/02 08:20:52;;;;;;;9.17;5.53;;;;;;;18.42;65.10;99014.94;6976496;28;20191;-80
2022/10/02 08:24:15;;;;;;;6.90;3.57;;;;;;;18.25;64.43;99024.16;6976215;28;20270;-79
2022/10/02 08:27:48;;;;;;;8.27;4.90;;;;;;;18.75;63.93;98989.47;6980766;28;20240;-80
2022/10/02 08:31:11;;;;;;;67.13;50.77;;;;;;;18.48;64.82;99024.84;6980591;28;20556;-80
2022/10/02 08:34:33;;;;;;;229.40;162.67;;;;;;;18.76;64.27;99032.09;6978588;28;20212;-80
2022/10/02 08:38:11;;;;;;;25.33;17.77;;;;;;;18.87;64.39;99007.38;7005367;28;20312;-79
2022/10/02 08:42:10;;;;;;;7.90;4.43;;;;;;;19.04;63.31;98999.94;7006018;28;20267;-80
2022/10/02 08:46:01;;;;;;;11.90;3.60;;;;;;;19.07;63.73;98985.78;7006075;28;20225;-78
2022/10/02 08:50:04;;;;;;;5.40;3.77;;;;;;;18.94;64.23;99021.69;7006941;28;20585;-79
2022/10/02 08:54:02;;;;;;;9.00;6.97;;;;;;;19.27;63.03;98991.50;7010611;28;20534;-79
2022/10/02 08:57:51;;;;;;;10.00;3.87;;;;;;;19.11;63.05;98966.97;7008835;28;20242;-79
2022/10/02 09:01:28;;;;;;;9.27;3.63;;;;;;;19.01;63.66;98995.00;7008754;28;20285;-78
2022/10/02 09:05:12;;;;;;;6.83;3.70;;;;;;;19.55;62.73;98985.81;7008910;28;20219;-79
2022/10/02 09:09:15;;;;;;;5.53;3.30;;;;;;;19.85;60.93;98964.19;7008580;28;20310;-80
2022/10/02 09:13:14;;;;;;;7.13;3.77;;;;;;;19.88;60.73;98949.97;6930500;28;20274;-79
2022/10/02 09:16:42;;;;;;;5.47;2.90;;;;;;;19.90;60.43;98938.78;7008026;28;20198;-79
2022/10/02 09:20:39;;;;;;;7.40;3.37;;;;;;;20.12;59.22;98951.31;7006963;28;20266;-79
2022/10/02 09:24:28;;;;;;;4.67;2.53;;;;;;;20.39;59.01;98953.97;7004622;28;20273;-80
2022/10/02 09:28:23;;;;;;;6.93;3.20;;;;;;;20.26;58.66;98940.72;7007233;28;20240;-79
2022/10/02 09:32:22;;;;;;;7.97;2.63;;;;;;;20.46;58.38;98932.66;7009388;28;20237;-80
2022/10/02 09:36:23;;;;;;;4.77;2.83;;;;;;;19.52;59.92;98915.19;7008396;28;20740;-79
2022/10/02 09:40:22;;;;;;;5.67;2.90;;;;;;;19.84;60.78;98939.81;7007402;28;20301;-79
2022/10/02 09:44:31;;;;;;;9.93;3.83;;;;;;;19.10;64.02;98968.84;7014001;28;20216;-79
2022/10/02 09:48:12;;;;;;;13.93;6.67;;;;;;;19.52;63.62;98947.22;7010212;28;20709;-80
2022/10/02 09:52:18;;;;;;;17.40;10.60;;;;;;;19.95;61.82;98953.34;7008431;28;20222;-79
2022/10/02 09:56:13;;;;;;;5.63;3.23;;;;;;;19.89;62.25;98956.28;7009974;28;20217;-79
2022/10/02 09:59:51;;;;;;;4.73;2.33;;;;;;;19.47;62.37;98969.88;7005025;28;20385;-80
2022/10/02 10:03:57;;;;;;;4.97;2.67;;;;;;;19.18;63.47;98960.22;7004503;28;20263;-80
2022/10/02 10:07:55;;;;;;;3.20;1.97;;;;;;;19.10;63.05;98963.38;6902896;28;20721;-80
2022/10/02 10:11:29;;;;;;;5.40;2.40;;;;;;;18.96;63.14;98947.63;7004365;28;20269;-80
2022/10/02 10:15:09;;;;;;;4.57;3.43;;;;;;;19.46;63.06;98976.41;7004990;28;20201;-80
2022/10/02 10:19:06;;;;;;;4.73;2.60;;;;;;;19.40;62.15;98971.16;7003961;28;20217;-79
2022/10/02 10:22:42;;;;;;;3.27;2.20;;;;;;;19.68;62.04;98973.59;7005253;28;20661;-80
2022/10/02 10:26:17;;;;;;;4.73;2.47;;;;;;;19.80;62.40;98979.75;7003683;28;20370;-80
2022/10/02 10:29:54;;;;;;;3.60;1.80;;;;;;;19.75;61.35;98971.50;7003429;28;20237;-80
2022/10/02 10:33:46;;;;;;;2.63;1.57;;;;;;;19.83;61.37;98984.69;7005543;28;20692;-80
2022/10/02 10:41:08;;;;;;;1.80;1.70;;;;;;;20.14;61.27;98964.72;7004069;28;20186;-79
2022/10/02 10:44:52;;;;;;;2.03;1.73;;;;;;;20.60;60.04;98964.78;7004329;28;20198;-80
2022/10/02 10:48:35;;;;;;;3.30;2.13;;;;;;;20.59;59.41;98965.88;6999580;28;20292;-79
2022/10/02 10:52:06;;;;;;;4.40;1.93;;;;;;;20.93;57.93;98967.16;6983984;28;20201;-79
2022/10/02 10:55:45;;;;;;;3.33;2.10;;;;;;;20.69;60.12;98962.38;7004552;28;20554;-80
2022/10/02 10:59:48;;;;;;;3.70;2.30;;;;;;;20.54;59.43;99012.41;6996230;28;20229;-78
2022/10/02 11:03:26;;;;;;;2.53;1.80;;;;;;;20.08;60.71;98988.53;6964996;28;20245;-80
2022/10/02 11:07:15;;;;;;;2.37;1.80;;;;;;;20.07;60.52;98967.72;6988061;28;20228;-80
2022/10/02 11:10:47;;;;;;;1.60;1.50;;;;;;;19.47;61.41;98991.75;7003062;28;20200;-79
2022/10/02 11:14:25;;;;;;;1.50;1.40;;;;;;;19.44;62.16;98984.03;7004300;28;20193;-79
2022/10/02 11:17:56;;;;;;;1.93;1.80;;;;;;;19.74;61.53;98991.75;7003235;28;20237;-79
2022/10/02 11:21:55;;;;;;;1.70;1.60;;;;;;;19.64;61.52;98989.72;7003834;28;20650;-79
2022/10/02 11:25:28;;;;;;;1.17;1.17;;;;;;;19.69;61.59;99011.66;6995380;28;20201;-79
2022/10/02 11:29:14;;;;;;;1.70;1.60;;;;;;;19.63;61.61;99006.41;7003670;28;20637;-80
2022/10/02 11:33:00;;;;;;;1.40;1.30;;;;;;;19.90;61.26;99018.16;7002917;28;20182;-78
2022/10/02 11:36:51;;;;;;;1.33;1.23;;;;;;;19.80;60.85;99015.34;6969165;28;20293;-78
2022/10/02 11:40:34;;;;;;;1.40;1.30;;;;;;;19.65;62.22;99012.44;7002392;28;20599;-78
2022/10/02 11:44:08;;;;;;;1.40;1.30;;;;;;;19.53;61.96;98992.63;7002769;28;20251;-80
2022/10/02 11:47:43;;;;;;;3.27;1.30;;;;;;;19.76;61.59;98995.84;7002038;28;20303;-79
2022/10/02 11:51:20;;;;;;;1.40;1.30;;;;;;;20.06;61.49;98987.97;7000775;28;20220;-79
2022/10/02 11:54:52;;;;;;;1.40;1.17;;;;;;;20.18;60.45;98990.50;7002093;28;20654;-78
2022/10/02 11:58:21;;;;;;;1.23;1.23;;;;;;;20.15;60.04;98994.59;7001341;28;20244;-79
2022/10/02 12:01:46;;;;;;;1.10;1.10;;;;;;;19.93;60.41;98987.53;7006209;28;20347;-78
2022/10/02 12:05:34;;;;;;;1.23;1.23;;;;;;;19.98;60.13;98993.88;7007470;28;20292;-79
2022/10/02 12:09:02;;;;;;;1.40;1.30;;;;;;;19.89;61.06;98983.66;7006813;28;20398;-79
2022/10/02 12:12:33;;;;;;;1.30;1.30;;;;;;;19.98;60.20;99012.22;7007575;28;20237;-79
2022/10/02 12:16:02;;;;;;;1.50;1.40;;;;;;;19.60;61.16;98988.59;7006159;28;20213;-79
2022/10/02 12:26:57;;;;;;;1.63;1.53;;;;;;;19.90;61.53;98979.84;7007099;28;20580;-79
2022/10/02 12:27:15;;;;;;;1.83;1.73;;;;;;;19.96;61.05;98989.72;6979450;28;20222;-79
2022/10/02 12:30:40;;;;;;;1.80;1.70;;;;;;;19.20;61.74;98987.28;6995483;28;20289;-79
2022/10/02 12:34:12;;;;;;;1.60;1.50;;;;;;;19.72;61.52;98991.16;7006365;28;20186;-79
2022/10/02 12:37:41;;;;;;;2.50;1.90;;;;;;;19.79;61.81;98972.63;7003371;28;20229;-79
2022/10/02 12:41:12;;;;;;;1.67;1.57;;;;;;;19.88;60.87;98977.34;7006299;28;20202;-78
2022/10/02 12:45:03;;;;;;;1.60;1.50;;;;;;;19.71;61.56;98986.78;7006756;28;20190;-78
2022/10/02 12:48:34;;;;;;;1.50;1.40;;;;;;;19.23;62.45;98993.09;6975135;28;20241;-78
2022/10/02 12:52:10;;;;;;;2.97;1.53;;;;;;;19.29;62.72;99018.59;6992977;28;20225;-78
2022/10/02 12:56:02;;;;;;;1.90;1.80;;;;;;;18.39;65.00;99003.69;7006424;28;20212;-79
2022/10/02 12:59:31;;;;;;;2.03;1.90;;;;;;;18.79;65.38;99006.97;7005602;28;20624;-79
2022/10/02 13:03:17;;;;;;;1.97;1.87;;;;;;;19.20;64.32;99001.78;7006819;28;20254;-78
2022/10/02 13:07:25;;;;;;;3.00;2.27;;;;;;;19.29;64.13;99018.59;7005988;28;20270;-78
2022/10/02 13:10:48;;;;;;;3.00;2.23;;;;;;;19.23;63.56;98981.34;6964030;28;20207;-78
2022/10/02 13:14:31;;;;;;;2.67;2.47;;;;;;;19.29;64.53;99026.81;7000456;28;20265;-78
2022/10/02 13:17:57;;;;;;;2.40;2.20;;;;;;;19.26;64.68;99022.66;6994167;28;20228;-79
2022/10/02 13:21:25;;;;;;;1.57;1.53;;;;;;;18.79;65.25;99010.56;7003419;28;20682;-79
2022/10/02 13:25:01;;;;;;;2.00;1.80;;;;;;;19.16;64.70;99008.03;7001596;28;20704;-79
2022/10/02 13:28:57;;;;;;;1.93;1.80;;;;;;;19.31;64.29;99019.16;7002918;28;20319;-78
2022/10/02 13:32:30;;;;;;;2.60;2.00;;;;;;;19.20;64.86;99026.38;6994855;28;20601;-78
2022/10/02 13:36:00;;;;;;;2.50;1.23;;;;;;;19.08;65.20;99008.47;7009240;28;20300;-79
2022/10/02 13:39:40;;;;;;;1.70;1.60;;;;;;;19.70;63.75;99015.22;6998738;28;20217;-78
2022/10/02 13:43:26;;;;;;;1.70;1.60;;;;;;;19.69;64.19;98997.16;6996023;28;20622;-78
2022/10/02 13:47:04;;;;;;;1.30;1.20;;;;;;;19.29;63.51;99013.13;7004575;28;20206;-78
2022/10/02 13:50:43;;;;;;;1.97;1.63;;;;;;;19.66;62.78;99014.09;7003445;28;20316;-79
2022/10/02 13:54:35;;;;;;;1.40;1.30;;;;;;;19.19;63.46;99008.34;7004743;28;20197;-77
2022/10/02 13:58:25;;;;;;;1.57;1.47;;;;;;;19.33;63.60;99025.22;6991919;28;20226;-78
2022/10/02 14:01:57;;;;;;;3.03;1.50;;;;;;;19.37;63.47;99016.25;7000219;28;20209;-77
2022/10/02 14:05:28;;;;;;;1.03;1.00;;;;;;;19.31;64.03;99014.53;7003811;28;20217;-78
2022/10/02 14:09:06;;;;;;;1.40;1.40;;;;;;;19.43;63.18;98985.13;7003268;28;20317;-78
2022/10/02 14:12:34;;;;;;;1.30;1.20;;;;;;;19.90;63.06;99018.16;7002688;28;20672;-78
2022/10/02 14:16:06;;;;;;;1.60;1.50;;;;;;;19.60;62.82;99017.84;7002957;28;20242;-78
2022/10/02 14:19:51;;;;;;;2.30;2.10;;;;;;;19.68;62.82;98990.84;7002783;28;20228;-78
2022/10/02 14:23:23;;;;;;;2.07;1.97;;;;;;;19.72;62.21;99004.84;7003582;28;20201;-78
2022/10/02 14:26:56;;;;;;;2.00;1.90;;;;;;;19.57;63.01;99010.19;7003594;28;20284;-78
2022/10/02 14:30:19;;;;;;;1.97;1.87;;;;;;;19.65;62.84;98996.84;7003158;28;20631;-79
2022/10/02 14:34:05;;;;;;;2.00;1.90;;;;;;;19.43;63.80;99004.28;7002372;28;20249;-79
2022/10/02 14:37:47;;;;;;;1.73;1.63;;;;;;;19.37;63.50;98977.13;7002346;28;20194;-79
2022/10/02 14:41:29;;;;;;;1.83;1.60;;;;;;;19.52;62.42;98982.75;7003009;28;20579;-78
2022/10/02 14:45:20;;;;;;;1.40;1.30;;;;;;;19.41;63.31;98994.69;7003266;28;20293;-79
2022/10/02 14:48:56;;;;;;;1.30;1.20;;;;;;;19.45;62.95;98971.22;7002127;28;20230;-79
2022/10/02 14:52:26;;;;;;;1.70;1.60;;;;;;;19.80;62.58;98987.97;7002831;28;20333;-79
2022/10/02 14:56:29;;;;;;;1.30;1.30;;;;;;;19.70;62.30;98972.25;7003703;28;20342;-78
2022/10/02 15:00:04;;;;;;;3.80;2.37;;;;;;;19.62;62.19;98982.84;6963806;28;20721;-78
2022/10/02 15:04:04;;;;;;;4.37;2.57;;;;;;;19.66;62.16;99001.25;7002428;28;20216;-78
2022/10/02 15:07:27;;;;;;;2.73;2.53;;;;;;;19.78;61.62;98995.59;6971848;28;20253;-79
2022/10/02 15:10:49;;;;;;;3.67;2.87;;;;;;;19.44;62.00;98977.75;6979222;28;20212;-79
2022/10/02 15:14:14;;;;;;;2.80;2.60;;;;;;;19.06;62.18;98943.13;6974842;28;20543;-78
2022/10/02 15:17:59;;;;;;;2.50;2.30;;;;;;;19.27;62.11;99005.19;6973975;28;20226;-78
2022/10/02 15:21:28;;;;;;;2.13;2.03;;;;;;;19.09;63.05;99026.50;6989359;28;20277;-79
2022/10/02 15:24:55;;;;;;;2.10;1.87;;;;;;;19.51;62.21;99008.47;7001466;28;20274;-78
2022/10/02 15:28:23;;;;;;;3.70;2.67;;;;;;;19.17;63.65;99015.94;6997969;28;20231;-78
2022/10/02 15:32:09;;;;;;;2.50;2.30;;;;;;;19.05;63.85;99039.84;7000752;28;20239;-78
2022/10/02 15:35:40;;;;;;;2.27;2.10;;;;;;;18.99;63.88;99020.94;7003835;28;20331;-79
2022/10/02 15:39:18;;;;;;;3.53;2.20;;;;;;;18.95;63.97;99041.63;7006829;28;20260;-78
2022/10/02 15:42:50;;;;;;;2.20;2.00;;;;;;;19.01;63.94;99049.66;7008398;28;20239;-79
2022/10/02 15:46:19;;;;;;;2.53;2.33;;;;;;;19.05;63.87;99049.97;7007748;28;20820;-78
2022/10/02 15:49:56;;;;;;;2.60;2.27;;;;;;;18.97;64.37;99059.44;7007001;28;20373;-78
2022/10/02 15:53:27;;;;;;;3.17;2.50;;;;;;;18.93;63.66;99052.81;7008052;28;20204;-78
2022/10/02 15:57:19;;;;;;;2.20;2.03;;;;;;;18.83;64.06;99066.34;7007259;28;20220;-78
2022/10/02 16:01:00;;;;;;;3.73;3.10;;;;;;;18.93;64.34;99076.59;6993258;28;20206;-78
2022/10/02 16:04:27;;;;;;;3.60;3.10;;;;;;;18.51;64.11;99027.06;7007675;28;20213;-78
2022/10/02 16:08:01;;;;;;;2.30;2.10;;;;;;;18.71;64.49;99086.63;7007414;28;20253;-79
2022/10/02 16:11:59;;;;;;;2.30;2.00;;;;;;;18.13;65.09;99067.09;7003736;28;20291;-79
2022/10/02 16:15:25;;;;;;;3.03;2.30;;;;;;;18.52;64.70;99075.13;7005941;28;20235;-77
2022/10/02 16:18:59;;;;;;;2.63;2.43;;;;;;;18.21;65.80;99061.25;7005398;28;20287;-78
2022/10/02 16:22:30;;;;;;;2.77;2.57;;;;;;;18.76;64.57;99081.25;7007019;28;20351;-78
2022/10/02 16:26:00;;;;;;;6.67;6.07;;;;;;;18.80;64.44;99091.44;7004415;28;20220;-79
2022/10/02 16:29:26;;;;;;;11.67;7.87;;;;;;;18.70;64.19;99088.53;6987514;28;20347;-78
2022/10/02 16:33:07;;;;;;;5.67;5.07;;;;;;;18.65;64.43;99098.56;7004548;28;20208;-78
2022/10/02 16:36:40;;;;;;;4.27;3.80;;;;;;;18.73;64.27;99089.94;6978840;28;20192;-77
2022/10/02 16:40:03;;;;;;;5.90;4.47;;;;;;;18.68;64.37;99089.84;6977545;28;20901;-77
2022/10/02 16:43:37;;;;;;;5.43;4.80;;;;;;;18.62;64.38;99088.97;6986812;28;20293;-79
2022/10/02 16:47:01;;;;;;;3.73;3.37;;;;;;;18.47;64.45;99109.75;6976716;28;20255;-77
2022/10/02 16:50:28;;;;;;;3.40;3.10;;;;;;;18.36;65.14;99099.72;6976980;28;20225;-76